createdAt,value
2019-02-20T05:00:17.809Z,88.7146
2019-02-20T05:03:45.730Z,89.337158
2019-02-20T05:07:22.627Z,89.648438
2019-02-20T05:10:50.547Z,89.953613
2019-02-20T05:14:19.502Z,90.161133
2019-02-20T05:17:48.486Z,90.472412
2019-02-20T05:21:16.381Z,90.679932
2019-02-20T05:24:44.361Z,90.783691
2019-02-20T05:28:12.336Z,90.783691
2019-02-20T05:31:41.270Z,90.783691
2019-02-20T05:35:09.212Z,90.783691
2019-02-20T05:38:38.187Z,90.991211
2019-02-20T05:42:06.097Z,91.400146
2019-02-20T05:45:34.145Z,91.607666
2019-02-20T05:49:02.199Z,91.815186
2019-02-20T05:52:30.139Z,91.918945
2019-02-20T05:55:58.092Z,92.333984
2019-02-20T05:59:26.885Z,92.333984
2019-02-20T06:02:55.792Z,92.437744
2019-02-20T06:06:24.444Z,92.437744
2019-02-20T06:09:52.413Z,92.437744
2019-02-20T06:13:20.351Z,92.230225
2019-02-20T06:16:48.317Z,92.022705
2019-02-20T06:20:16.267Z,91.918945
2019-02-20T06:23:44.333Z,91.607666
2019-02-20T06:27:12.258Z,91.607666
2019-02-20T06:30:40.228Z,91.75415
2019-02-20T06:34:08.183Z,91.85791
2019-02-20T06:37:36.104Z,92.06543
2019-02-20T06:41:04.048Z,92.626953
2019-02-20T06:44:32.052Z,93.139648
2019-02-20T06:47:59.983Z,93.450928
2019-02-20T06:51:28.891Z,93.865967
2019-02-20T06:54:56.815Z,94.073486
2019-02-20T06:58:24.780Z,94.378662
2019-02-20T07:01:52.697Z,94.128418
2019-02-20T07:05:20.679Z,94.128418
2019-02-20T07:08:48.647Z,94.128418
2019-02-20T07:12:16.582Z,94.030762
2019-02-20T07:15:44.507Z,93.927002
2019-02-20T07:19:12.532Z,93.719482
2019-02-20T07:22:40.516Z,93.927002
2019-02-20T07:26:08.498Z,94.030762
2019-02-20T07:29:36.650Z,94.128418
2019-02-20T07:33:04.572Z,94.030762
2019-02-20T07:36:33.568Z,93.780518
2019-02-20T07:40:01.495Z,93.572998
2019-02-20T07:43:30.039Z,93.157959
2019-02-20T07:46:58.638Z,92.1875
2019-02-20T07:50:27.588Z,91.876221
2019-02-20T07:53:55.521Z,91.156006
2019-02-20T07:57:23.685Z,91.113281
2019-02-20T08:00:51.620Z,90.905762
2019-02-20T08:04:19.654Z,91.009521
2019-02-20T08:07:47.598Z,90.802002
2019-02-20T08:11:15.511Z,90.490723
2019-02-20T08:14:43.448Z,90.386963
2019-02-20T08:18:11.358Z,90.594482
2019-02-20T08:21:39.344Z,90.350342
2019-02-20T08:25:07.287Z,90.698242
2019-02-20T08:28:36.218Z,90.905762
2019-02-20T08:32:04.179Z,91.217041
2019-02-20T08:35:32.139Z,90.759277
2019-02-20T08:39:00.060Z,90.246582
2019-02-20T08:42:27.986Z,89.727783
2019-02-20T08:45:55.943Z,89.379883
2019-02-20T08:49:23.940Z,89.068604
2019-02-20T08:52:51.915Z,89.581299
2019-02-20T08:56:19.911Z,89.025879
2019-02-20T08:59:47.827Z,88.757324
2019-02-20T09:03:16.805Z,89.068604
2019-02-20T09:06:44.773Z,89.025879
2019-02-20T09:10:13.704Z,88.653564
2019-02-20T09:13:42.620Z,88.513184
2019-02-20T09:17:10.796Z,88.513184
2019-02-20T09:20:38.768Z,88.409424
2019-02-20T09:24:07.701Z,88.409424
2019-02-20T09:27:35.623Z,87.646484
2019-02-20T09:31:03.560Z,86.883545
2019-02-20T09:34:31.554Z,86.05957
2019-02-20T09:37:59.524Z,86.431885
2019-02-20T09:41:27.465Z,86.431885
2019-02-20T09:44:55.380Z,86.578369
2019-02-20T09:48:23.354Z,86.578369
2019-02-20T09:51:51.303Z,86.05957
2019-02-20T09:55:19.295Z,86.431885
2019-02-20T09:58:47.216Z,86.022949
2019-02-20T10:02:16.169Z,86.230469
2019-02-20T10:05:44.123Z,85.71167
2019-02-20T10:09:12.066Z,85.614014
2019-02-20T10:12:41.989Z,85.058594
2019-02-20T10:16:09.953Z,83.92334
2019-02-20T10:19:37.957Z,83.825684
2019-02-20T10:23:05.906Z,83.575439
2019-02-20T10:26:33.894Z,83.129883
2019-02-20T10:30:03.559Z,82.513428
2019-02-20T10:33:31.551Z,82.269287
2019-02-20T10:37:00.232Z,82.128906
2019-02-20T10:40:28.185Z,80.584717
2019-02-20T10:43:56.155Z,80.895996
2019-02-20T10:47:24.170Z,80.279541
2019-02-20T10:50:53.120Z,80.279541
2019-02-20T10:54:21.059Z,80.999756
2019-02-20T10:57:49.041Z,80.316162
2019-02-20T11:01:17.906Z,80.419922
2019-02-20T11:04:45.833Z,80.316162
2019-02-20T11:08:21.866Z,80.175781
2019-02-20T11:11:49.781Z,79.217529
2019-02-20T11:15:18.680Z,79.870605
2019-02-20T11:18:46.583Z,79.766846
2019-02-20T11:22:14.497Z,79.35791
2019-02-20T11:25:43.379Z,79.870605
2019-02-20T11:29:11.294Z,79.766846
2019-02-20T11:32:39.212Z,79.833984
2019-02-20T11:36:08.022Z,80.279541
2019-02-20T11:39:37.791Z,79.974365
2019-02-20T11:43:06.841Z,80.072021
2019-02-20T11:46:34.944Z,79.870605
2019-02-20T11:50:02.850Z,79.974365
2019-02-20T11:53:37.097Z,79.974365
2019-02-20T11:57:02.654Z,79.217529
2019-02-20T12:00:30.534Z,78.393555
2019-02-20T12:03:58.463Z,80.072021
2019-02-20T12:07:26.368Z,79.974365
2019-02-20T12:10:55.296Z,80.523682
2019-02-20T12:14:24.719Z,79.974365
2019-02-20T12:17:53.102Z,80.792236
2019-02-20T12:21:21.000Z,80.419922
2019-02-20T12:24:48.912Z,80.688477
2019-02-20T12:28:17.811Z,80.688477
2019-02-20T12:31:52.225Z,79.35791
2019-02-20T12:35:17.587Z,79.663086
2019-02-20T12:38:45.499Z,80.279541
2019-02-20T12:42:13.400Z,80.010986
2019-02-20T12:45:41.312Z,80.523682
2019-02-20T12:49:09.233Z,80.523682
2019-02-20T12:52:37.147Z,81.243896
2019-02-20T12:56:09.919Z,81.652832
2019-02-20T12:59:36.933Z,81.243896
2019-02-20T13:03:04.854Z,81.304932
2019-02-20T13:06:32.751Z,79.974365
2019-02-20T13:10:00.671Z,79.559326
2019-02-20T13:13:28.584Z,79.418945
2019-02-20T13:16:56.496Z,80.24292
2019-02-20T13:20:24.417Z,80.0354
2019-02-20T13:23:52.327Z,79.833984
2019-02-20T13:27:22.912Z,80.0354
2019-02-20T13:30:50.165Z,79.522705
2019-02-20T13:34:19.905Z,79.797363
2019-02-20T13:37:47.803Z,79.180908
2019-02-20T13:41:15.716Z,79.180908
2019-02-20T13:44:44.652Z,79.382324
2019-02-20T13:48:12.572Z,78.527832
2019-02-20T13:51:40.754Z,79.180908
2019-02-20T13:55:09.651Z,79.626465
2019-02-20T13:58:37.667Z,79.931641
2019-02-20T14:02:06.385Z,80.548096
2019-02-20T14:05:35.195Z,80.999756
2019-02-20T14:09:03.093Z,81.616211
2019-02-20T14:12:31.236Z,81.512451
2019-02-20T14:15:59.184Z,81.616211
2019-02-20T14:19:27.089Z,81.47583
2019-02-20T14:22:54.998Z,81.060791
2019-02-20T14:26:22.910Z,81.103516
2019-02-20T14:29:50.839Z,80.895996
2019-02-20T14:33:18.743Z,81.201172
2019-02-20T14:36:46.645Z,81.713867
2019-02-20T14:40:14.582Z,81.958008
2019-02-20T14:43:42.497Z,82.470703
2019-02-20T14:47:10.407Z,82.989502
2019-02-20T14:50:38.332Z,82.885742
2019-02-20T14:54:07.246Z,83.435059
2019-02-20T14:57:35.145Z,83.850098
2019-02-20T15:01:03.070Z,84.155273
2019-02-20T15:04:32.016Z,84.295654
2019-02-20T15:07:59.946Z,84.912109
2019-02-20T15:11:29.832Z,85.223389
2019-02-20T15:14:57.763Z,85.430908
2019-02-20T15:18:28.675Z,85.223389
2019-02-20T15:21:56.588Z,85.223389
2019-02-20T15:26:12.970Z,85.327148
2019-02-20T15:29:39.900Z,85.534668
2019-02-20T15:33:07.861Z,85.223389
2019-02-20T15:36:35.764Z,85.119629
2019-02-20T15:40:03.674Z,85.327148
2019-02-20T15:43:31.894Z,85.327148
2019-02-20T15:47:00.893Z,85.632324
2019-02-20T15:50:28.868Z,85.534668
2019-02-20T15:53:56.819Z,85.430908
2019-02-20T15:57:24.782Z,85.736084
2019-02-20T16:00:54.844Z,85.882568
2019-02-20T16:04:22.774Z,85.882568
2019-02-20T16:07:50.719Z,86.083984
2019-02-20T16:11:19.623Z,86.291504
2019-02-20T16:14:47.560Z,86.395264
2019-02-20T16:18:16.671Z,86.602783
2019-02-20T16:21:45.582Z,86.907959
2019-02-20T16:25:14.511Z,87.054443
2019-02-20T16:28:42.716Z,87.1521
2019-02-20T16:32:12.278Z,87.463379
2019-02-20T16:35:43.520Z,88.079834
2019-02-20T16:39:15.318Z,88.494873
2019-02-20T16:42:46.033Z,88.800049
2019-02-20T16:46:14.258Z,89.831543
2019-02-20T16:49:43.140Z,90.490723
2019-02-20T16:53:11.149Z,90.490723
2019-02-20T16:56:39.138Z,91.723633
2019-02-20T17:00:08.073Z,92.651367
2019-02-20T17:03:37.016Z,92.651367
2019-02-20T17:07:05.490Z,94.030762
2019-02-20T17:10:36.445Z,94.65332
2019-02-20T17:14:04.352Z,95.373535
2019-02-20T17:17:32.297Z,95.581055
2019-02-20T17:21:00.258Z,96.032715
2019-02-20T17:24:28.191Z,96.343994
2019-02-20T17:28:05.211Z,96.240234
2019-02-20T17:31:28.989Z,96.136475
2019-02-20T17:34:56.928Z,96.343994
2019-02-20T17:38:24.862Z,96.551514
2019-02-20T17:41:53.057Z,96.655273
2019-02-20T17:45:28.553Z,96.343994
2019-02-20T17:49:10.029Z,96.136475
2019-02-20T17:52:37.993Z,96.447754
2019-02-20T17:56:05.897Z,96.136475
2019-02-20T17:59:33.824Z,96.343994
2019-02-20T18:03:03.719Z,96.594238
2019-02-20T18:06:34.482Z,96.905518
2019-02-20T18:10:10.723Z,96.801758
2019-02-20T18:13:46.183Z,97.210693
2019-02-20T18:17:14.277Z,96.801758
2019-02-20T18:20:43.487Z,96.801758
2019-02-20T18:25:36.344Z,96.905518
2019-02-20T18:29:06.646Z,96.697998
2019-02-20T18:32:34.679Z,96.490479
2019-02-20T18:36:02.785Z,96.386719
2019-02-20T18:39:35.805Z,96.490479
2019-02-20T18:43:05.412Z,96.081543
2019-02-20T18:46:39.326Z,95.977783
2019-02-20T18:50:07.397Z,96.081543
2019-02-20T19:00:47.063Z,96.386719
2019-02-20T19:04:15.088Z,96.594238
2019-02-20T19:07:43.243Z,96.435547
2019-02-20T19:11:11.278Z,96.124268
2019-02-20T19:14:39.363Z,96.228027
2019-02-20T19:18:07.410Z,96.228027
2019-02-20T19:21:35.457Z,96.331787
2019-02-20T19:25:03.585Z,96.228027
2019-02-20T19:28:32.550Z,96.020508
2019-02-20T19:32:05.577Z,95.709229
2019-02-20T19:35:33.514Z,96.020508
2019-02-20T19:39:01.507Z,95.709229
2019-02-20T19:42:29.429Z,95.404053
2019-02-20T19:45:57.372Z,95.874023
2019-02-20T19:49:26.306Z,95.977783
2019-02-20T19:52:54.249Z,95.770264
2019-02-20T19:56:23.140Z,96.386719
2019-02-20T19:59:51.067Z,96.435547
2019-02-20T20:03:19.024Z,95.977783
2019-02-20T20:06:46.991Z,96.179199
2019-02-20T20:10:15.055Z,96.435547
2019-02-20T20:13:43.000Z,96.533203
2019-02-20T20:17:10.927Z,96.844482
2019-02-20T20:20:40.861Z,96.844482
2019-02-20T20:24:10.382Z,96.740723
2019-02-20T20:27:37.724Z,96.533203
2019-02-20T20:31:05.752Z,96.948242
2019-02-20T20:34:35.262Z,97.259521
2019-02-20T20:38:07.149Z,97.875977
2019-02-20T20:41:35.682Z,97.979736
2019-02-20T20:45:03.658Z,98.083496
2019-02-20T20:48:31.688Z,98.394775
2019-02-20T20:51:59.706Z,98.596191
2019-02-20T20:55:27.701Z,98.907471
2019-02-20T20:58:56.804Z,99.21875
2019-02-20T21:02:24.745Z,99.42627
2019-02-20T21:05:52.654Z,99.627686
2019-02-20T21:09:20.609Z,99.835205
2019-02-20T21:12:48.572Z,99.938965
2019-02-20T21:16:17.509Z,99.938965
2019-02-20T21:19:45.457Z,99.993896
2019-02-20T21:23:13.375Z,99.993896
2019-02-20T21:26:43.759Z,99.993896
2019-02-20T21:30:13.418Z,99.993896
2019-02-20T21:33:40.346Z,99.993896
2019-02-20T21:37:08.342Z,99.993896
2019-02-20T21:40:36.190Z,99.993896
2019-02-20T21:44:04.131Z,99.993896
2019-02-20T21:47:32.046Z,99.993896
2019-02-20T21:50:59.995Z,99.993896
2019-02-20T21:54:27.937Z,99.993896
2019-02-20T21:57:55.886Z,99.993896
2019-02-20T22:01:23.795Z,99.993896
2019-02-20T22:04:51.735Z,99.993896
2019-02-20T22:08:19.684Z,99.993896
2019-02-20T22:11:47.612Z,99.993896
2019-02-20T22:15:15.532Z,99.993896
2019-02-20T22:18:43.482Z,99.993896
2019-02-20T22:22:11.401Z,99.993896
2019-02-20T22:25:39.328Z,99.993896
2019-02-20T22:29:07.262Z,99.993896
2019-02-20T22:32:35.216Z,99.993896
2019-02-20T22:36:04.111Z,99.993896
2019-02-20T22:39:32.059Z,99.993896
2019-02-20T22:43:00.037Z,99.993896
2019-02-20T22:46:27.981Z,99.993896
2019-02-20T22:49:56.906Z,99.993896
2019-02-20T22:53:24.846Z,99.993896
2019-02-20T22:56:52.769Z,99.993896
